Time;durP1;ratioP1;P1;durP2;ratioP2;P2;SDS_P1;SDS_P2;PMS_P1;PMS_P2;Temp;Humidity;BMP_temperature;BMP_pressure;BME280_temperature;BME280_humidity;BME280_pressure;Samples;Min_cycle;Max_cycle;Signal;HPM_P1;HPM_P2
2022/07/22 00:00:00;;;;;;;2.13;1.40;;;22.30;1.00;;;;;;5117120;28;20779;-72
2022/07/22 00:02:27;;;;;;;1.60;1.40;;;22.40;1.00;;;;;;5117720;28;20867;-71
2022/07/22 00:04:54;;;;;;;1.20;1.10;;;22.30;1.00;;;;;;5118197;28;20483;-71
2022/07/22 00:07:21;;;;;;;1.80;1.50;;;22.30;1.00;;;;;;5118596;28;20488;-72
2022/07/22 00:09:49;;;;;;;2.47;1.37;;;22.30;1.00;;;;;;5118413;28;20484;-70
2022/07/22 00:12:16;;;;;;;1.90;1.30;;;22.30;1.00;;;;;;5117925;28;20492;-71
2022/07/22 00:14:43;;;;;;;1.40;1.30;;;22.30;1.00;;;;;;5118894;28;20549;-70
2022/07/22 00:17:10;;;;;;;1.67;1.20;;;22.30;1.00;;;;;;5119821;28;20480;-71
2022/07/22 00:19:37;;;;;;;3.30;1.30;;;22.20;1.00;;;;;;5117841;28;20445;-71
2022/07/22 00:22:04;;;;;;;1.77;1.10;;;22.20;99.90;;;;;;5119730;28;20860;-71
2022/07/22 00:24:31;;;;;;;2.00;1.30;;;22.10;1.00;;;;;;5119537;28;20487;-70
2022/07/22 00:26:59;;;;;;;2.00;1.40;;;22.20;1.00;;;;;;5118939;28;20527;-71
2022/07/22 00:29:26;;;;;;;2.03;1.20;;;22.20;99.90;;;;;;5119488;28;20480;-71
2022/07/22 00:31:53;;;;;;;3.63;1.50;;;22.20;99.90;;;;;;5119806;28;20495;-71
2022/07/22 00:34:20;;;;;;;1.90;1.10;;;22.10;99.90;;;;;;5119145;28;20488;-71
2022/07/22 00:36:47;;;;;;;2.60;1.37;;;22.10;99.90;;;;;;5119621;28;20448;-71
2022/07/22 00:39:15;;;;;;;4.20;1.40;;;22.00;99.90;;;;;;5119382;28;20510;-70
2022/07/22 00:41:42;;;;;;;1.33;1.10;;;22.00;99.90;;;;;;5119217;28;20853;-71
2022/07/22 00:44:11;;;;;;;1.57;1.10;;;21.90;1.00;;;;;;5119149;28;20890;-71
2022/07/22 00:46:39;;;;;;;2.37;1.17;;;21.90;99.90;;;;;;5119035;28;20888;-70
2022/07/22 00:49:07;;;;;;;1.33;1.10;;;21.90;99.90;;;;;;5119476;28;20444;-71
2022/07/22 00:51:34;;;;;;;1.20;1.10;;;21.90;99.90;;;;;;5118992;28;20454;-71
2022/07/22 00:54:02;;;;;;;2.00;1.50;;;21.90;99.90;;;;;;5118965;28;20449;-71
2022/07/22 00:56:30;;;;;;;1.97;1.30;;;21.90;1.00;;;;;;5118842;28;20809;-70
2022/07/22 00:59:00;;;;;;;1.40;1.10;;;21.90;46.00;;;;;;5119165;28;20492;-71
2022/07/22 01:01:28;;;;;;;3.40;1.60;;;22.00;99.90;;;;;;5118907;28;20516;-72
2022/07/22 01:03:55;;;;;;;1.90;1.70;;;22.00;1.00;;;;;;5119177;28;20517;-71
2022/07/22 01:06:22;;;;;;;2.17;1.10;;;22.00;1.00;;;;;;5118451;28;20489;-70
2022/07/22 01:08:50;;;;;;;1.60;1.20;;;22.00;1.00;;;;;;5118269;28;20584;-71
2022/07/22 01:11:19;;;;;;;1.80;1.20;;;21.90;99.90;;;;;;5118520;28;20808;-71
2022/07/22 01:13:48;;;;;;;1.83;1.13;;;21.80;5.30;;;;;;5118884;28;20487;-71
2022/07/22 01:16:16;;;;;;;1.97;1.40;;;21.70;1.00;;;;;;5117632;28;20819;-72
2022/07/22 01:18:45;;;;;;;1.70;1.20;;;21.70;99.90;;;;;;5117591;28;20752;-71
2022/07/22 01:21:15;;;;;;;1.60;1.27;;;21.60;99.90;;;;;;5117641;28;20476;-71
2022/07/22 01:23:42;;;;;;;1.60;1.20;;;21.60;1.00;;;;;;5117832;28;20483;-71
2022/07/22 01:26:09;;;;;;;2.57;1.50;;;21.60;1.00;;;;;;5117928;28;20763;-71
2022/07/22 01:28:36;;;;;;;2.60;1.20;;;21.60;1.00;;;;;;5118080;28;20515;-73
2022/07/22 01:31:04;;;;;;;1.50;1.17;;;21.60;1.00;;;;;;5118109;28;20954;-70
2022/07/22 01:33:31;;;;;;;2.00;1.20;;;21.50;1.00;;;;;;5118590;28;20484;-72
2022/07/22 01:35:58;;;;;;;2.03;1.30;;;21.40;1.00;;;;;;5117699;28;20492;-71
2022/07/22 01:38:26;;;;;;;1.50;1.30;;;21.30;1.00;;;;;;5117908;28;20517;-72
2022/07/22 01:40:53;;;;;;;2.13;1.20;;;21.30;45.80;;;;;;5117662;28;20558;-72
2022/07/22 01:43:20;;;;;;;1.37;1.10;;;21.30;1.00;;;;;;5117789;28;20476;-72
2022/07/22 01:45:49;;;;;;;2.00;1.30;;;21.40;1.00;;;;;;5117766;28;20444;-72
2022/07/22 01:48:16;;;;;;;1.50;1.40;;;21.30;1.00;;;;;;5118194;28;20573;-71
2022/07/22 01:50:43;;;;;;;1.60;1.30;;;21.30;4.70;;;;;;5117782;28;20807;-72
2022/07/22 01:53:10;;;;;;;2.50;1.40;;;21.30;1.00;;;;;;5117471;28;20480;-71
2022/07/22 01:55:38;;;;;;;2.03;1.40;;;21.30;99.90;;;;;;5117207;28;20535;-72
2022/07/22 01:58:06;;;;;;;1.70;1.43;;;21.20;99.90;;;;;;5117206;28;20479;-72
2022/07/22 02:00:33;;;;;;;2.00;1.40;;;21.20;99.90;;;;;;5117409;28;20491;-72
2022/07/22 02:03:00;;;;;;;7.40;1.30;;;21.20;99.90;;;;;;5117640;28;20476;-72
2022/07/22 02:05:28;;;;;;;2.13;1.40;;;21.20;99.90;;;;;;5117426;28;20508;-72
2022/07/22 02:08:00;;;;;;;2.17;1.50;;;21.20;99.90;;;;;;5117487;28;20789;-72
2022/07/22 02:10:27;;;;;;;2.70;1.20;;;21.20;99.90;;;;;;5117303;28;20480;-72
2022/07/22 02:12:56;;;;;;;1.50;1.20;;;21.20;99.90;;;;;;5117243;28;20888;-72
2022/07/22 02:15:23;;;;;;;2.23;1.30;;;21.10;99.90;;;;;;5117304;28;20502;-73
2022/07/22 02:17:50;;;;;;;1.83;1.60;;;21.10;99.90;;;;;;5117084;28;20536;-72
2022/07/22 02:20:17;;;;;;;2.00;1.60;;;21.20;99.90;;;;;;5117549;28;20487;-72
2022/07/22 02:22:44;;;;;;;1.50;1.30;;;21.20;99.90;;;;;;5117293;28;20484;-72
2022/07/22 02:25:11;;;;;;;2.37;1.10;;;21.10;99.90;;;;;;5116863;28;20484;-72
2022/07/22 02:27:39;;;;;;;1.70;1.40;;;21.10;99.90;;;;;;5116754;28;20955;-71
2022/07/22 02:30:09;;;;;;;2.90;2.70;;;21.00;1.00;;;;;;5116987;28;20452;-71
2022/07/22 02:32:36;;;;;;;2.97;1.40;;;20.90;1.00;;;;;;5116529;28;20928;-70
2022/07/22 02:35:04;;;;;;;3.37;1.63;;;20.90;1.00;;;;;;5116935;28;20473;-71
2022/07/22 02:37:31;;;;;;;1.60;1.47;;;20.90;1.00;;;;;;5116685;28;20485;-73
2022/07/22 02:39:58;;;;;;;1.73;1.40;;;20.90;1.00;;;;;;5116841;28;20930;-71
2022/07/22 02:42:25;;;;;;;1.63;1.37;;;21.00;1.00;;;;;;5116551;28;20884;-71
2022/07/22 02:44:52;;;;;;;1.90;1.40;;;21.00;1.00;;;;;;5116896;28;20817;-71
2022/07/22 02:47:20;;;;;;;3.00;1.30;;;21.00;1.00;;;;;;5116649;28;20453;-72
2022/07/22 02:49:47;;;;;;;2.33;1.40;;;21.00;1.00;;;;;;5116866;28;20476;-71
2022/07/22 02:52:14;;;;;;;1.93;1.83;;;21.00;99.90;;;;;;5117025;28;20460;-72
2022/07/22 02:54:41;;;;;;;2.80;2.10;;;20.90;99.90;;;;;;5116665;28;20441;-72
2022/07/22 02:57:08;;;;;;;2.37;1.80;;;21.00;99.90;;;;;;5116517;28;20499;-72
2022/07/22 02:59:34;;;;;;;1.77;1.30;;;21.00;99.90;;;;;;5116638;28;20891;-72
2022/07/22 03:02:01;;;;;;;4.30;1.57;;;21.00;99.90;;;;;;5116742;28;20922;-71
2022/07/22 03:04:30;;;;;;;2.27;1.77;;;20.90;99.90;;;;;;5116618;28;20441;-71
2022/07/22 03:06:57;;;;;;;6.03;2.10;;;21.00;99.90;;;;;;5116783;28;20491;-72
2022/07/22 03:09:23;;;;;;;2.30;1.57;;;20.90;99.90;;;;;;5116447;28;20931;-71
2022/07/22 03:11:50;;;;;;;2.97;2.00;;;20.80;1.00;;;;;;5116521;28;20484;-72
2022/07/22 03:14:18;;;;;;;2.83;2.17;;;20.80;1.00;;;;;;5116558;28;20451;-72
2022/07/22 03:16:45;;;;;;;2.00;1.70;;;20.70;1.00;;;;;;5116341;28;20513;-72
2022/07/22 03:19:12;;;;;;;3.10;1.80;;;20.60;1.00;;;;;;5116868;28;20441;-72
2022/07/22 03:21:40;;;;;;;2.93;2.23;;;20.70;1.00;;;;;;5116676;28;20456;-72
2022/07/22 03:24:07;;;;;;;3.40;2.47;;;20.70;1.00;;;;;;5116479;28;20472;-72
2022/07/22 03:26:34;;;;;;;5.00;2.13;;;20.70;1.00;;;;;;5116098;28;20453;-72
2022/07/22 03:29:01;;;;;;;3.70;2.73;;;20.70;1.00;;;;;;5116404;28;20563;-72
2022/07/22 03:31:28;;;;;;;4.00;2.40;;;20.50;1.00;;;;;;5116286;28;20491;-72
2022/07/22 03:33:55;;;;;;;4.67;2.30;;;20.50;1.00;;;;;;5116456;28;20451;-72
2022/07/22 03:36:22;;;;;;;2.20;1.60;;;20.40;1.00;;;;;;5116039;28;20453;-72
2022/07/22 03:38:51;;;;;;;2.83;2.40;;;20.40;1.00;;;;;;5116250;28;20490;-72
2022/07/22 03:41:17;;;;;;;2.43;1.80;;;20.40;1.00;;;;;;5116408;28;20492;-71
2022/07/22 03:43:44;;;;;;;2.10;1.90;;;20.40;1.00;;;;;;5115190;28;20480;-72
2022/07/22 03:46:11;;;;;;;2.30;2.10;;;20.50;1.00;;;;;;5113948;28;20825;-71
2022/07/22 03:48:38;;;;;;;4.33;1.60;;;20.50;1.00;;;;;;5113711;28;20484;-71
2022/07/22 03:51:06;;;;;;;3.13;2.20;;;20.50;1.00;;;;;;5114202;28;20451;-71
2022/07/22 03:53:33;;;;;;;4.07;1.90;;;20.50;1.00;;;;;;5113823;28;20451;-71
2022/07/22 03:56:01;;;;;;;2.70;2.00;;;20.40;1.00;;;;;;5117675;28;20456;-71
2022/07/22 03:58:28;;;;;;;4.70;2.13;;;20.30;1.00;;;;;;5118730;28;20483;-72
2022/07/22 04:00:56;;;;;;;3.70;2.50;;;20.30;1.00;;;;;;5119839;28;20509;-72
2022/07/22 04:03:23;;;;;;;2.40;2.00;;;20.30;1.00;;;;;;5120101;28;20964;-71
2022/07/22 04:05:50;;;;;;;2.03;1.83;;;20.20;1.00;;;;;;5119456;28;20505;-70
2022/07/22 04:08:18;;;;;;;2.60;2.40;;;20.30;1.00;;;;;;5118528;28;20476;-72
2022/07/22 04:10:45;;;;;;;2.37;1.90;;;20.30;1.00;;;;;;5119040;28;20864;-71
2022/07/22 04:13:13;;;;;;;3.00;2.07;;;20.30;1.00;;;;;;5119982;28;20447;-71
2022/07/22 04:15:40;;;;;;;3.00;2.17;;;20.20;1.00;;;;;;5119774;28;20484;-72
2022/07/22 04:18:07;;;;;;;2.73;2.50;;;20.20;1.00;;;;;;5119214;28;20487;-71
2022/07/22 04:20:34;;;;;;;5.60;2.53;;;20.10;1.00;;;;;;5119029;28;20440;-71
2022/07/22 04:23:01;;;;;;;4.00;1.80;;;20.10;1.00;;;;;;5119486;28;20472;-71
2022/07/22 04:25:28;;;;;;;2.33;1.60;;;20.00;1.00;;;;;;5119330;28;20437;-71
2022/07/22 04:27:56;;;;;;;3.03;2.43;;;20.00;1.00;;;;;;5118834;28;20488;-71
2022/07/22 04:30:24;;;;;;;3.37;1.70;;;20.10;1.00;;;;;;5118410;28;20484;-71
2022/07/22 04:32:51;;;;;;;2.27;1.87;;;20.10;1.00;;;;;;5118527;28;20908;-71
2022/07/22 04:35:18;;;;;;;6.73;2.60;;;20.10;1.00;;;;;;5119044;28;20903;-71
2022/07/22 04:37:45;;;;;;;2.10;1.90;;;20.20;1.00;;;;;;5118920;28;20480;-72
2022/07/22 04:40:13;;;;;;;2.00;1.73;;;20.20;1.00;;;;;;5119230;28;20539;-72
2022/07/22 04:42:40;;;;;;;2.13;1.60;;;20.10;1.00;;;;;;5118683;28;20800;-71
2022/07/22 04:45:07;;;;;;;2.90;1.90;;;20.10;1.00;;;;;;5119062;28;20452;-72
2022/07/22 04:47:36;;;;;;;3.83;2.33;;;20.20;1.00;;;;;;5116782;28;20492;-71
2022/07/22 04:50:03;;;;;;;3.70;2.00;;;20.20;1.00;;;;;;5109319;28;20508;-71
2022/07/22 04:52:30;;;;;;;2.37;1.80;;;20.10;1.00;;;;;;5106079;28;20950;-71
2022/07/22 04:54:59;;;;;;;4.23;1.87;;;20.20;1.00;;;;;;5107276;28;20925;-72
2022/07/22 04:57:26;;;;;;;3.43;1.70;;;20.30;1.00;;;;;;5110647;28;20464;-73
2022/07/22 04:59:54;;;;;;;1.70;1.47;;;20.50;1.00;;;;;;5109263;28;20494;-72
2022/07/22 05:02:21;;;;;;;2.83;2.50;;;20.60;1.00;;;;;;5102646;28;20653;-72
2022/07/22 05:04:49;;;;;;;2.57;1.70;;;20.60;1.00;;;;;;5114408;28;20748;-71
2022/07/22 05:07:16;;;;;;;2.83;1.63;;;20.70;1.00;;;;;;5112012;28;20721;-72
2022/07/22 05:09:43;;;;;;;3.77;2.00;;;20.80;1.00;;;;;;5106974;28;20505;-72
2022/07/22 05:12:10;;;;;;;2.60;2.37;;;21.00;1.00;;;;;;5108611;28;20453;-72
2022/07/22 05:14:37;;;;;;;3.40;2.03;;;21.10;1.00;;;;;;5100440;28;20473;-72
2022/07/22 05:17:04;;;;;;;2.67;1.60;;;20.80;1.00;;;;;;5112556;28;20514;-72
2022/07/22 05:19:31;;;;;;;2.23;2.00;;;20.80;1.00;;;;;;5105092;28;20522;-74
2022/07/22 05:21:59;;;;;;;4.13;2.50;;;20.80;1.00;;;;;;5105294;28;20457;-72
2022/07/22 05:24:26;;;;;;;4.33;2.90;;;20.70;1.00;;;;;;5113002;28;20551;-72
2022/07/22 05:26:53;;;;;;;2.83;1.90;;;20.80;1.00;;;;;;5100533;28;20505;-73
2022/07/22 05:29:20;;;;;;;2.93;1.87;;;20.80;1.00;;;;;;5110350;28;20485;-75
2022/07/22 05:31:47;;;;;;;2.90;2.50;;;21.00;1.00;;;;;;5106294;28;20874;-71
2022/07/22 05:34:14;;;;;;;4.30;1.80;;;20.80;1.00;;;;;;5101838;28;20495;-72
2022/07/22 05:36:41;;;;;;;3.47;2.53;;;20.90;1.00;;;;;;5112427;28;20532;-72
2022/07/22 05:39:10;;;;;;;3.07;2.53;;;21.10;1.00;;;;;;5100595;28;20541;-72
2022/07/22 05:41:37;;;;;;;2.80;2.37;;;21.10;1.00;;;;;;5091958;28;20510;-72
2022/07/22 05:44:04;;;;;;;3.20;2.13;;;21.00;1.00;;;;;;5092059;28;20446;-70
2022/07/22 05:46:31;;;;;;;2.77;2.57;;;20.90;1.00;;;;;;5078885;28;20889;-73
2022/07/22 05:48:58;;;;;;;4.20;3.10;;;20.90;1.00;;;;;;5078854;28;20472;-72
2022/07/22 05:51:26;;;;;;;4.33;3.10;;;20.80;1.00;;;;;;5087862;28;20493;-70
2022/07/22 05:53:52;;;;;;;3.77;2.90;;;20.60;1.00;;;;;;5088332;28;20481;-71
2022/07/22 05:56:21;;;;;;;4.90;3.37;;;20.50;1.00;;;;;;5081098;28;20539;-71
2022/07/22 05:58:48;;;;;;;3.53;2.90;;;20.50;1.00;;;;;;5092221;28;20512;-70
2022/07/22 06:01:15;;;;;;;3.23;2.93;;;20.50;1.00;;;;;;5079957;28;20806;-71
2022/07/22 06:03:42;;;;;;;3.90;2.80;;;20.60;1.00;;;;;;5086152;28;20522;-72
2022/07/22 06:06:09;;;;;;;2.77;2.23;;;20.60;1.00;;;;;;5087915;28;20452;-72
2022/07/22 06:08:36;;;;;;;2.50;2.30;;;20.80;1.00;;;;;;5077652;28;21002;-72
2022/07/22 06:11:03;;;;;;;33.97;27.57;;;21.20;1.00;;;;;;5091145;28;20542;-71
2022/07/22 06:13:32;;;;;;;4.13;3.83;;;21.20;1.00;;;;;;5083261;28;20469;-71
2022/07/22 06:15:59;;;;;;;3.13;2.40;;;21.40;1.00;;;;;;5082080;28;20537;-72
2022/07/22 06:18:26;;;;;;;2.47;2.20;;;21.50;1.00;;;;;;5088814;28;20964;-71
2022/07/22 06:20:53;;;;;;;3.60;2.33;;;21.50;1.00;;;;;;5076121;28;20492;-71
2022/07/22 06:23:20;;;;;;;2.80;2.40;;;21.50;1.00;;;;;;5086986;28;21054;-72
2022/07/22 06:25:48;;;;;;;3.43;2.47;;;21.40;99.90;;;;;;5084078;28;20473;-72
2022/07/22 06:28:15;;;;;;;2.77;2.57;;;21.30;1.00;;;;;;5078355;28;20442;-72
2022/07/22 06:30:43;;;;;;;3.43;3.13;;;21.50;1.00;;;;;;5089523;28;20872;-72
2022/07/22 06:33:10;;;;;;;5.60;3.53;;;21.50;99.90;;;;;;5077873;28;20531;-73
2022/07/22 06:35:39;;;;;;;2.63;2.10;;;21.70;99.90;;;;;;5085120;28;20507;-72
2022/07/22 06:38:07;;;;;;;8.43;2.80;;;21.90;99.90;;;;;;5088013;28;20453;-72
2022/07/22 06:40:34;;;;;;;4.20;2.10;;;22.00;27.10;;;;;;5083653;28;20484;-71
2022/07/22 06:43:01;;;;;;;3.30;2.67;;;21.80;99.90;;;;;;5094622;28;20794;-72
2022/07/22 06:45:28;;;;;;;7.97;2.80;;;21.90;99.90;;;;;;5095368;28;20947;-71
2022/07/22 06:47:57;;;;;;;2.73;1.93;;;22.00;99.90;;;;;;5095085;28;20454;-72
2022/07/22 06:50:24;;;;;;;4.60;3.60;;;22.10;99.90;;;;;;5092841;28;20539;-71
2022/07/22 06:52:52;;;;;;;3.50;2.00;;;22.20;1.00;;;;;;5093717;28;20203;-72
2022/07/22 06:55:19;;;;;;;2.93;2.03;;;22.20;1.00;;;;;;5094080;28;20518;-71
2022/07/22 06:57:46;;;;;;;3.40;2.80;;;22.10;1.00;;;;;;5095216;28;20452;-71
2022/07/22 07:00:14;;;;;;;3.03;2.73;;;22.00;1.00;;;;;;5095326;28;20519;-71
2022/07/22 07:02:41;;;;;;;3.90;3.60;;;22.00;49.70;;;;;;5095096;28;20473;-72
2022/07/22 07:05:10;;;;;;;3.93;2.63;;;22.10;1.00;;;;;;5094191;28;20529;-71
2022/07/22 07:07:37;;;;;;;3.47;2.63;;;22.10;1.00;;;;;;5094314;28;20453;-71
2022/07/22 07:10:04;;;;;;;4.87;3.43;;;22.20;1.00;;;;;;5093447;28;20515;-70
2022/07/22 07:12:31;;;;;;;3.17;2.57;;;22.30;99.90;;;;;;5095151;28;20545;-71
2022/07/22 07:14:58;;;;;;;2.80;2.50;;;22.50;1.00;;;;;;5091804;28;20442;-70
2022/07/22 07:17:25;;;;;;;3.90;2.70;;;22.70;99.90;;;;;;5095384;28;20453;-70
2022/07/22 07:19:52;;;;;;;3.27;3.00;;;22.70;99.90;;;;;;5094296;28;20466;-70
2022/07/22 07:22:20;;;;;;;3.20;2.90;;;22.70;1.00;;;;;;5094407;28;20880;-72
2022/07/22 07:24:47;;;;;;;4.40;4.00;;;22.60;1.00;;;;;;5094990;28;20441;-70
2022/07/22 07:27:14;;;;;;;4.90;4.50;;;22.50;1.00;;;;;;5094652;28;20481;-71
2022/07/22 07:29:41;;;;;;;3.70;2.23;;;22.40;99.90;;;;;;5096541;28;20556;-71
2022/07/22 07:32:08;;;;;;;2.53;2.13;;;22.50;1.00;;;;;;5098942;28;20481;-70
2022/07/22 07:34:35;;;;;;;3.67;2.90;;;22.60;1.00;;;;;;5098361;28;20470;-70
2022/07/22 07:37:02;;;;;;;6.27;3.60;;;22.90;1.00;;;;;;5098643;28;20445;-70
2022/07/22 07:39:30;;;;;;;2.73;2.23;;;23.00;99.90;;;;;;5098439;28;20915;-70
2022/07/22 07:41:57;;;;;;;5.67;2.60;;;22.90;1.00;;;;;;5097541;28;20500;-70
2022/07/22 07:44:24;;;;;;;3.23;3.03;;;22.90;1.00;;;;;;5093701;28;20481;-70
2022/07/22 07:46:52;;;;;;;5.97;3.40;;;23.10;1.00;;;;;;5098661;28;20449;-70
2022/07/22 07:49:19;;;;;;;2.57;2.37;;;23.00;99.90;;;;;;5098143;28;20481;-69
2022/07/22 07:51:45;;;;;;;2.33;2.13;;;23.00;1.00;;;;;;5097107;28;20771;-70
2022/07/22 07:54:12;;;;;;;3.83;3.43;;;23.30;99.90;;;;;;5096028;28;20532;-71
2022/07/22 07:56:41;;;;;;;4.07;3.30;;;23.40;1.00;;;;;;5096460;28;20602;-70
2022/07/22 07:59:08;;;;;;;5.50;3.80;;;23.70;1.00;;;;;;5097077;28;20540;-70
2022/07/22 08:01:35;;;;;;;7.10;4.60;;;23.80;99.90;;;;;;5097224;28;20445;-71
2022/07/22 08:04:01;;;;;;;1.93;1.73;;;23.70;99.90;;;;;;5097489;28;20442;-71
2022/07/22 08:06:28;;;;;;;4.70;3.47;;;23.70;99.90;;;;;;5096493;28;20640;-70
2022/07/22 08:08:55;;;;;;;4.10;3.40;;;23.60;99.90;;;;;;5096383;28;20903;-72
2022/07/22 08:11:22;;;;;;;4.50;3.13;;;23.70;99.90;;;;;;5098094;28;20834;-72
2022/07/22 08:13:51;;;;;;;5.00;3.00;;;23.80;99.90;;;;;;5097229;28;20508;-71
2022/07/22 08:16:18;;;;;;;4.10;3.80;;;24.00;97.00;;;;;;5097162;28;20476;-71
2022/07/22 08:18:45;;;;;;;3.67;3.10;;;24.10;1.00;;;;;;5097562;28;21113;-72
2022/07/22 08:21:12;;;;;;;3.70;3.40;;;24.20;1.00;;;;;;5098120;28;20939;-71
2022/07/22 08:23:39;;;;;;;2.77;2.50;;;24.00;1.00;;;;;;5095590;28;20922;-71
2022/07/22 08:26:06;;;;;;;2.70;2.50;;;23.90;1.00;;;;;;5093721;28;20556;-71
2022/07/22 08:28:32;;;;;;;2.43;1.70;;;24.20;1.00;;;;;;5095776;28;21085;-70
2022/07/22 08:31:01;;;;;;;3.80;2.90;;;24.50;1.00;;;;;;5093529;28;20580;-71
2022/07/22 08:33:28;;;;;;;7.27;4.00;;;24.70;1.00;;;;;;5094705;28;20445;-70
2022/07/22 08:35:55;;;;;;;5.33;2.50;;;24.80;99.90;;;;;;5095399;28;20784;-70
2022/07/22 08:38:22;;;;;;;3.80;3.50;;;24.90;99.90;;;;;;5094835;28;20473;-69
2022/07/22 08:40:49;;;;;;;2.63;2.27;;;25.00;99.90;;;;;;5103417;28;20472;-71
2022/07/22 08:43:16;;;;;;;2.80;2.60;;;25.10;99.90;;;;;;5118963;28;20449;-71
2022/07/22 08:45:44;;;;;;;3.23;2.37;;;25.20;99.90;;;;;;5117966;28;20485;-71
2022/07/22 08:48:12;;;;;;;3.43;3.10;;;25.30;99.90;;;;;;5116550;28;20445;-71
2022/07/22 08:50:39;;;;;;;3.13;2.50;;;25.30;99.90;;;;;;5117588;28;20563;-72
2022/07/22 08:53:10;;;;;;;3.90;3.00;;;25.20;99.90;;;;;;5118873;28;20822;-70
2022/07/22 08:55:42;;;;;;;3.07;2.60;;;25.30;99.90;;;;;;5117075;28;20484;-70
2022/07/22 08:58:09;;;;;;;2.83;2.27;;;25.30;99.90;;;;;;5117241;28;20935;-72
2022/07/22 09:00:36;;;;;;;2.67;2.47;;;25.50;99.90;;;;;;5117670;28;20936;-71
2022/07/22 09:03:20;;;;;;;3.27;2.97;;;25.60;99.90;;;;;;5115028;28;20441;-72
2022/07/22 09:05:47;;;;;;;3.27;2.53;;;25.80;66.40;;;;;;5115058;28;20867;-72
2022/07/22 09:08:14;;;;;;;2.50;2.30;;;25.90;35.60;;;;;;5111349;28;20889;-71
2022/07/22 09:10:41;;;;;;;2.80;2.30;;;25.90;8.50;;;;;;5111430;28;20472;-72
2022/07/22 09:13:10;;;;;;;2.57;2.37;;;25.90;1.20;;;;;;5116103;28;20491;-70
2022/07/22 09:15:40;;;;;;;2.17;1.97;;;25.90;4.70;;;;;;5115448;28;20510;-71
2022/07/22 09:18:09;;;;;;;5.37;2.47;;;25.90;1.00;;;;;;5113816;28;20452;-71
2022/07/22 09:20:38;;;;;;;3.07;2.77;;;25.90;1.00;;;;;;5103890;28;21141;-71
2022/07/22 09:23:13;;;;;;;2.63;2.23;;;26.20;1.00;;;;;;5096944;28;21054;-72
2022/07/22 09:25:42;;;;;;;6.43;3.00;;;26.20;1.00;;;;;;5096301;28;20477;-73
2022/07/22 09:28:15;;;;;;;2.70;2.00;;;26.30;1.00;;;;;;5112689;28;20531;-73
2022/07/22 09:30:49;;;;;;;3.50;2.83;;;26.30;1.00;;;;;;5114472;28;20963;-72
2022/07/22 09:33:17;;;;;;;2.87;1.80;;;26.40;1.00;;;;;;5115575;28;20548;-73
2022/07/22 09:35:46;;;;;;;2.73;2.53;;;26.40;1.00;;;;;;5116105;28;20708;-72
2022/07/22 09:38:15;;;;;;;3.17;2.97;;;26.40;1.00;;;;;;5115926;28;20907;-73
2022/07/22 09:40:54;;;;;;;2.90;2.53;;;26.50;1.00;;;;;;5108794;28;20927;-71
2022/07/22 09:43:22;;;;;;;3.23;2.50;;;26.80;1.00;;;;;;5113561;28;20799;-70
2022/07/22 09:45:51;;;;;;;3.90;2.67;;;26.80;1.00;;;;;;5111578;28;20461;-71
2022/07/22 09:48:21;;;;;;;2.87;1.90;;;26.80;1.00;;;;;;5106157;28;20530;-70
2022/07/22 09:50:50;;;;;;;4.23;3.83;;;26.90;1.00;;;;;;5094487;28;20938;-70
2022/07/22 09:53:19;;;;;;;2.90;2.70;;;27.00;1.00;;;;;;5105961;28;20492;-70
2022/07/22 09:55:47;;;;;;;3.77;2.90;;;26.80;1.00;;;;;;5109923;28;20452;-71
2022/07/22 09:58:15;;;;;;;3.03;2.80;;;26.90;1.00;;;;;;5108765;28;20465;-72
2022/07/22 10:00:42;;;;;;;3.70;2.57;;;27.10;1.00;;;;;;5112815;28;20531;-71
2022/07/22 10:03:12;;;;;;;2.70;2.50;;;27.30;1.00;;;;;;5114970;28;20441;-70
2022/07/22 10:05:42;;;;;;;5.03;4.63;;;27.30;1.00;;;;;;5110381;28;21146;-71
2022/07/22 10:08:14;;;;;;;5.30;3.70;;;27.50;1.00;;;;;;5110156;28;20527;-71
2022/07/22 10:10:46;;;;;;;3.57;2.73;;;27.80;1.00;;;;;;5115301;28;21144;-72
2022/07/22 10:13:14;;;;;;;2.10;2.00;;;28.10;1.00;;;;;;5109611;28;20485;-72
2022/07/22 10:15:41;;;;;;;2.27;2.07;;;28.40;1.00;;;;;;5112579;28;20456;-72
2022/07/22 10:18:15;;;;;;;2.43;1.70;;;28.60;1.00;;;;;;5101442;28;20466;-73
2022/07/22 10:20:42;;;;;;;5.43;2.27;;;28.80;1.00;;;;;;5103413;28;20451;-71
2022/07/22 10:23:13;;;;;;;2.30;2.10;;;29.10;1.00;;;;;;5112345;28;20540;-71
2022/07/22 10:25:51;;;;;;;2.47;2.20;;;29.30;1.00;;;;;;5109171;28;20888;-70
2022/07/22 10:28:26;;;;;;;2.00;1.80;;;29.30;1.00;;;;;;5107267;28;20542;-71
2022/07/22 10:30:54;;;;;;;2.57;1.70;;;29.30;1.00;;;;;;5112228;28;20570;-71
2022/07/22 10:33:22;;;;;;;2.53;2.33;;;29.50;1.00;;;;;;5114527;28;20521;-72
2022/07/22 10:35:57;;;;;;;2.23;1.67;;;29.90;1.00;;;;;;5113725;28;20484;-72
2022/07/22 10:38:26;;;;;;;2.00;1.77;;;29.80;1.00;;;;;;5112903;28;20461;-72
2022/07/22 10:40:55;;;;;;;3.60;3.30;;;29.90;1.00;;;;;;5113752;28;20480;-72
2022/07/22 10:43:25;;;;;;;2.90;2.20;;;30.20;1.00;;;;;;5111456;28;20925;-72
2022/07/22 10:45:54;;;;;;;3.37;3.07;;;30.50;1.00;;;;;;5114099;28;20206;-72
2022/07/22 10:48:26;;;;;;;1.83;1.73;;;30.40;1.00;;;;;;5096614;28;20514;-71
2022/07/22 10:51:08;;;;;;;2.33;1.67;;;30.60;1.00;;;;;;5115124;28;20581;-73
2022/07/22 10:53:48;;;;;;;2.10;1.90;;;30.70;1.00;;;;;;5114802;28;20480;-72
2022/07/22 10:56:26;;;;;;;1.80;1.70;;;30.80;1.00;;;;;;5112249;28;20780;-75
2022/07/22 10:58:58;;;;;;;3.30;2.27;;;31.20;1.00;;;;;;5113665;28;20528;-74
2022/07/22 11:01:30;;;;;;;3.53;3.23;;;31.60;1.00;;;;;;5114009;28;20469;-73
2022/07/22 11:04:08;;;;;;;2.30;2.10;;;32.00;1.00;;;;;;5113052;28;20517;-73
2022/07/22 11:06:36;;;;;;;2.00;1.60;;;32.00;1.00;;;;;;5113095;28;20452;-73
2022/07/22 11:09:06;;;;;;;2.37;2.17;;;32.20;1.00;;;;;;5114031;28;20509;-74
2022/07/22 11:11:38;;;;;;;1.90;1.57;;;32.40;1.00;;;;;;5094688;28;20483;-74
2022/07/22 11:14:11;;;;;;;2.47;2.27;;;32.10;1.00;;;;;;5113666;28;20445;-74
2022/07/22 11:16:40;;;;;;;2.07;1.87;;;32.00;1.00;;;;;;5113622;28;20453;-73
2022/07/22 11:19:08;;;;;;;2.67;2.47;;;32.20;1.00;;;;;;5112031;28;20452;-73
2022/07/22 11:21:36;;;;;;;2.10;1.90;;;31.80;1.00;;;;;;5113680;28;20542;-73
2022/07/22 11:24:08;;;;;;;2.80;2.60;;;32.00;1.00;;;;;;5113119;28;20452;-72
2022/07/22 11:26:41;;;;;;;3.50;2.30;;;31.70;1.00;;;;;;5113491;28;20448;-72
2022/07/22 11:29:17;;;;;;;2.20;2.00;;;32.00;1.00;;;;;;5112976;28;20474;-73
2022/07/22 11:31:45;;;;;;;2.10;1.90;;;32.30;1.00;;;;;;5113303;28;20485;-72
2022/07/22 11:34:14;;;;;;;1.87;1.30;;;32.80;1.00;;;;;;5111084;28;20900;-72
2022/07/22 11:36:44;;;;;;;2.00;1.60;;;33.30;1.00;;;;;;5096027;28;20576;-72
2022/07/22 11:39:14;;;;;;;1.70;1.50;;;33.50;1.00;;;;;;5113102;28;20492;-72
2022/07/22 11:41:41;;;;;;;2.13;1.40;;;33.40;1.00;;;;;;5111395;28;20584;-71
2022/07/22 11:44:12;;;;;;;4.53;1.47;;;33.70;1.00;;;;;;5100253;28;20453;-71
2022/07/22 11:46:40;;;;;;;3.20;1.50;;;33.40;1.00;;;;;;5113041;28;20480;-71
2022/07/22 11:49:09;;;;;;;2.20;1.47;;;32.90;1.00;;;;;;5109108;28;20449;-70
2022/07/22 11:51:38;;;;;;;1.70;1.20;;;32.60;1.00;;;;;;5110396;28;20461;-70
2022/07/22 11:54:05;;;;;;;1.90;1.70;;;32.80;1.00;;;;;;5113470;28;20234;-72
2022/07/22 11:56:35;;;;;;;2.03;1.50;;;32.70;1.00;;;;;;5113284;28;20506;-71
2022/07/22 11:59:04;;;;;;;1.90;1.40;;;33.00;1.00;;;;;;5112925;28;20487;-72
2022/07/22 12:01:33;;;;;;;2.60;1.30;;;33.40;1.00;;;;;;5112059;28;20444;-72
2022/07/22 12:04:03;;;;;;;2.13;1.93;;;33.10;1.00;;;;;;5112516;28;20437;-71
2022/07/22 12:06:34;;;;;;;1.87;1.63;;;33.20;1.00;;;;;;5110024;28;20534;-72
2022/07/22 12:09:06;;;;;;;1.83;1.50;;;32.80;1.00;;;;;;5112026;28;20440;-71
2022/07/22 12:11:35;;;;;;;1.90;1.60;;;33.10;1.00;;;;;;5101128;28;20757;-72
2022/07/22 12:14:07;;;;;;;1.40;1.30;;;33.00;1.00;;;;;;5113402;28;20475;-71
2022/07/22 12:16:35;;;;;;;1.20;1.10;;;33.20;1.00;;;;;;5112081;28;20452;-72
2022/07/22 12:19:05;;;;;;;1.30;1.20;;;33.20;1.00;;;;;;5115400;28;20464;-71
2022/07/22 12:21:33;;;;;;;1.30;1.20;;;33.30;1.00;;;;;;5115825;28;20927;-71
2022/07/22 12:24:03;;;;;;;2.60;1.70;;;33.50;1.00;;;;;;5113892;28;20537;-71
2022/07/22 12:26:46;;;;;;;2.10;1.63;;;33.50;1.00;;;;;;5105530;28;20950;-70
2022/07/22 12:29:21;;;;;;;1.60;1.50;;;33.40;1.00;;;;;;5104313;28;20441;-71
2022/07/22 12:31:56;;;;;;;1.50;1.40;;;33.50;1.00;;;;;;5114068;28;21031;-72
2022/07/22 12:34:32;;;;;;;1.77;1.67;;;33.60;1.00;;;;;;5115170;28;20964;-72
2022/07/22 12:37:02;;;;;;;1.50;1.40;;;33.80;1.00;;;;;;5115913;28;20532;-72
2022/07/22 12:39:29;;;;;;;1.53;1.43;;;33.50;1.00;;;;;;5116634;28;20941;-71
2022/07/22 12:41:58;;;;;;;2.03;1.70;;;33.20;1.00;;;;;;5113321;28;20470;-71
2022/07/22 12:44:26;;;;;;;1.20;1.10;;;33.50;1.00;;;;;;5116378;28;21015;-72
2022/07/22 12:46:56;;;;;;;1.50;1.20;;;33.80;1.00;;;;;;5116818;28;20461;-71
2022/07/22 12:49:26;;;;;;;1.50;1.40;;;33.70;1.00;;;;;;5115336;28;20505;-72
2022/07/22 12:52:13;;;;;;;1.30;1.20;;;33.60;1.00;;;;;;5100283;28;20550;-71
2022/07/22 12:54:41;;;;;;;1.30;1.20;;;33.60;1.00;;;;;;5105835;28;20808;-71
2022/07/22 12:57:10;;;;;;;1.50;1.30;;;33.50;1.00;;;;;;5116624;28;20452;-71
2022/07/22 12:59:37;;;;;;;1.90;1.40;;;33.60;1.00;;;;;;5097590;28;20445;-72